createdAt,value
2018-04-23T05:20:39.344Z,56.80
2018-04-23T05:23:06.908Z,56.70
2018-04-23T05:25:34.370Z,56.40
2018-04-23T05:28:01.985Z,55.80
2018-04-23T05:30:29.437Z,55.50
2018-04-23T05:32:56.897Z,55.40
2018-04-23T05:35:24.361Z,55.20
2018-04-23T05:37:51.862Z,55.70
2018-04-23T05:40:19.333Z,56.50
2018-04-23T05:42:46.808Z,55.10
2018-04-23T05:45:15.046Z,55.90
2018-04-23T05:47:42.514Z,55.90
2018-04-23T05:50:09.980Z,55.00
2018-04-23T05:52:37.534Z,54.70
2018-04-23T05:55:05.056Z,54.30
2018-04-23T05:57:32.465Z,53.80
2018-04-23T06:00:00.729Z,54.00
2018-04-23T06:02:28.189Z,53.50
2018-04-23T06:04:55.657Z,53.10
2018-04-23T06:07:23.123Z,53.10
2018-04-23T06:09:51.341Z,52.10
2018-04-23T06:12:18.838Z,52.00
2018-04-23T06:14:46.266Z,52.40
2018-04-23T06:17:13.748Z,52.20
2018-04-23T06:19:41.350Z,51.60
2018-04-23T06:22:09.538Z,51.00
2018-04-23T06:24:37.033Z,50.90
2018-04-23T06:27:04.603Z,50.10
2018-04-23T06:29:32.165Z,50.30
2018-04-23T06:31:59.624Z,49.60
2018-04-23T06:34:27.243Z,48.80
2018-04-23T06:36:54.697Z,48.20
2018-04-23T06:39:22.197Z,47.80
2018-04-23T06:41:49.756Z,47.50
2018-04-23T06:44:17.318Z,47.10
2018-04-23T06:46:45.592Z,46.60
2018-04-23T06:49:13.049Z,46.50
2018-04-23T06:51:40.612Z,45.20
2018-04-23T06:54:08.837Z,43.60
2018-04-23T06:56:36.296Z,43.70
2018-04-23T06:59:03.891Z,43.40
2018-04-23T07:01:31.369Z,43.70
2018-04-23T07:03:58.933Z,43.80
2018-04-23T07:06:26.385Z,42.40
2018-04-23T07:08:53.944Z,43.10
2018-04-23T07:11:21.404Z,43.50
2018-04-23T07:13:48.861Z,42.50
2018-04-23T07:16:16.417Z,42.10
2018-04-23T07:18:43.872Z,41.70
2018-04-23T07:21:11.334Z,40.60
2018-04-23T07:23:38.899Z,40.80
2018-04-23T07:26:06.465Z,40.90
2018-04-23T07:28:33.921Z,41.50
2018-04-23T07:31:01.383Z,42.70
2018-04-23T07:33:28.847Z,43.90
2018-04-23T07:35:56.304Z,44.20
2018-04-23T07:38:23.850Z,44.20
2018-04-23T07:40:51.305Z,44.30
2018-04-23T07:43:18.869Z,42.60
2018-04-23T07:45:46.434Z,43.00
2018-04-23T07:48:13.897Z,43.30
2018-04-23T07:50:41.448Z,42.50
2018-04-23T07:53:09.004Z,42.60
2018-04-23T07:55:36.465Z,42.10
2018-04-23T07:58:04.026Z,42.10
2018-04-23T08:00:31.584Z,41.20
2018-04-23T08:02:59.144Z,40.60
2018-04-23T08:05:26.600Z,40.60
2018-04-23T08:07:54.065Z,40.80
2018-04-23T08:10:21.621Z,40.10
2018-04-23T08:12:49.249Z,39.50
2018-04-23T08:15:16.742Z,39.50
2018-04-23T08:17:44.304Z,38.80
2018-04-23T08:20:11.760Z,37.70
2018-04-23T08:22:39.223Z,38.50
2018-04-23T08:25:06.776Z,39.40
2018-04-23T08:27:34.338Z,38.30
2018-04-23T08:30:01.902Z,39.00
2018-04-23T08:32:29.461Z,39.20
2018-04-23T08:34:56.924Z,38.10
2018-04-23T08:37:24.384Z,37.60
2018-04-23T08:39:51.844Z,37.10
2018-04-23T08:42:19.298Z,36.50
2018-04-23T08:44:46.765Z,36.10
2018-04-23T08:47:14.220Z,34.50
2018-04-23T08:49:41.781Z,34.50
2018-04-23T08:52:09.242Z,35.10
2018-04-23T08:54:37.469Z,34.10
2018-04-23T08:57:04.964Z,34.00
2018-04-23T08:59:32.521Z,34.30
2018-04-23T09:02:00.090Z,33.80
2018-04-23T09:04:27.549Z,33.50
2018-04-23T09:06:55.005Z,34.60
2018-04-23T09:09:22.561Z,34.40
2018-04-23T09:11:50.163Z,34.80
2018-04-23T09:14:17.592Z,35.10
2018-04-23T09:16:45.053Z,34.80
2018-04-23T09:19:12.601Z,34.00
2018-04-23T09:21:40.065Z,35.10
2018-04-23T09:24:07.520Z,34.80
2018-04-23T09:26:34.997Z,35.50
2018-04-23T09:29:03.249Z,35.00
2018-04-23T09:31:30.810Z,35.00
2018-04-23T09:33:58.274Z,34.80
2018-04-23T09:36:25.825Z,35.30
2018-04-23T09:38:53.283Z,34.00
2018-04-23T09:41:20.747Z,31.80
2018-04-23T09:43:49.019Z,31.10
2018-04-23T09:46:16.580Z,31.10
2018-04-23T09:48:44.042Z,30.80
2018-04-23T09:51:11.504Z,31.00
2018-04-23T09:53:38.970Z,30.30
2018-04-23T09:56:06.424Z,29.00
2018-04-23T09:58:33.922Z,28.50
2018-04-23T10:01:02.136Z,29.70
2018-04-23T10:03:35.506Z,29.60
2018-04-23T10:06:03.011Z,29.90
2018-04-23T10:08:30.568Z,30.60
2018-04-23T10:10:58.030Z,30.80
2018-04-23T10:13:25.497Z,30.60
2018-04-23T10:15:53.758Z,30.80
2018-04-23T10:18:21.237Z,30.70
2018-04-23T10:20:49.493Z,31.50
2018-04-23T10:23:16.953Z,31.40
2018-04-23T10:25:44.472Z,31.50
2018-04-23T10:28:11.970Z,32.40
2018-04-23T10:30:39.425Z,32.40
2018-04-23T10:33:06.989Z,32.50
2018-04-23T10:35:34.449Z,32.70
2018-04-23T10:38:02.721Z,32.90
2018-04-23T10:40:30.297Z,32.80
2018-04-23T10:42:57.752Z,32.00
2018-04-23T10:45:25.993Z,32.30
2018-04-23T10:47:53.449Z,32.30
2018-04-23T10:50:20.938Z,32.60
2018-04-23T10:52:48.393Z,33.40
2018-04-23T10:55:15.865Z,31.60
2018-04-23T10:57:43.314Z,31.50
2018-04-23T11:00:10.772Z,32.00
2018-04-23T11:02:38.230Z,32.10
2018-04-23T11:05:05.689Z,32.20
2018-04-23T11:07:33.172Z,32.70
2018-04-23T11:10:01.417Z,33.20
2018-04-23T11:12:28.985Z,33.20
2018-04-23T11:14:56.444Z,33.40
2018-04-23T11:17:23.905Z,33.40
2018-04-23T11:19:51.365Z,32.90
2018-04-23T11:22:18.825Z,33.80
2018-04-23T11:24:46.302Z,34.00
2018-04-23T11:27:14.552Z,33.00
2018-04-23T11:29:42.009Z,33.00
2018-04-23T11:32:09.474Z,33.90
2018-04-23T11:34:36.929Z,33.80
2018-04-23T11:37:04.485Z,34.30
2018-04-23T11:39:32.102Z,34.60
2018-04-23T11:41:59.554Z,34.80
2018-04-23T11:44:27.015Z,34.90
2018-04-23T11:46:54.477Z,34.20
2018-04-23T11:49:21.941Z,31.80
2018-04-23T11:51:49.428Z,32.20
2018-04-23T11:54:16.989Z,32.30
2018-04-23T11:56:44.448Z,32.60
2018-04-23T11:59:12.071Z,33.90
2018-04-23T12:01:39.481Z,34.30
2018-04-23T12:04:06.940Z,35.20
2018-04-23T12:06:34.409Z,35.60
2018-04-23T12:09:02.645Z,35.70
2018-04-23T12:11:30.117Z,35.70
2018-04-23T12:13:57.677Z,36.10
2018-04-23T12:16:25.249Z,36.20
2018-04-23T12:18:52.712Z,36.20
2018-04-23T12:21:20.260Z,36.40
2018-04-23T12:23:47.725Z,36.00
2018-04-23T12:26:15.996Z,36.30
2018-04-23T12:28:43.470Z,36.30
2018-04-23T12:31:10.931Z,36.80
2018-04-23T12:33:38.393Z,37.00
2018-04-23T12:36:06.630Z,36.90
2018-04-23T12:38:34.106Z,36.80
2018-04-23T12:41:01.572Z,36.80
2018-04-23T12:43:29.047Z,36.80
2018-04-23T12:45:57.308Z,36.60
2018-04-23T12:48:24.758Z,36.60
2018-04-23T12:50:52.335Z,36.60
2018-04-23T12:53:19.877Z,35.90
2018-04-23T12:55:47.345Z,36.30
2018-04-23T12:58:14.904Z,36.30
2018-04-23T13:00:43.234Z,35.10
2018-04-23T13:03:10.680Z,35.10
2018-04-23T13:05:38.145Z,35.40
2018-04-23T13:08:05.602Z,36.00
2018-04-23T13:10:33.109Z,36.50
2018-04-23T13:13:01.389Z,36.00
2018-04-23T13:15:28.953Z,35.40
2018-04-23T13:17:56.423Z,35.10
2018-04-23T13:20:24.645Z,34.90
2018-04-23T13:22:52.112Z,34.90
2018-04-23T13:25:19.609Z,35.30
2018-04-23T13:27:47.832Z,36.20
2018-04-23T13:30:15.334Z,36.20
2018-04-23T13:32:42.797Z,36.20
2018-04-23T13:35:10.251Z,35.00
2018-04-23T13:37:37.717Z,35.80
2018-04-23T13:40:05.945Z,36.30
2018-04-23T13:42:33.499Z,36.30
2018-04-23T13:45:01.007Z,37.00
2018-04-23T13:47:29.237Z,40.70
2018-04-23T13:49:56.701Z,40.70
2018-04-23T13:52:24.161Z,42.00
2018-04-23T13:54:51.683Z,42.50
2018-04-23T13:57:19.117Z,42.80
2018-04-23T13:59:46.677Z,43.90
2018-04-23T14:02:14.136Z,44.60
2018-04-23T14:04:41.685Z,44.90
2018-04-23T14:07:09.252Z,44.80
2018-04-23T14:09:36.717Z,43.90
2018-04-23T14:12:04.272Z,44.00
2018-04-23T14:14:31.829Z,44.50
2018-04-23T14:16:59.385Z,45.20
2018-04-23T14:19:27.626Z,46.40
2018-04-23T14:21:55.098Z,46.30
2018-04-23T14:24:22.578Z,46.10
2018-04-23T14:26:50.862Z,46.30
2018-04-23T14:29:18.427Z,46.10
2018-04-23T14:31:45.908Z,46.90
2018-04-23T14:34:14.148Z,48.10
2018-04-23T14:36:41.707Z,48.10
2018-04-23T14:39:09.200Z,48.70
2018-04-23T14:41:37.444Z,48.60
2018-04-23T14:44:05.017Z,49.20
2018-04-23T14:46:32.572Z,47.70
2018-04-23T14:49:00.040Z,47.50
2018-04-23T14:51:27.492Z,47.00
2018-04-23T14:53:54.961Z,47.20
2018-04-23T14:56:22.514Z,46.50
2018-04-23T14:58:49.985Z,46.90
2018-04-23T15:01:18.242Z,47.50
2018-04-23T15:03:45.700Z,47.50
2018-04-23T15:06:13.268Z,47.70
2018-04-23T15:08:41.539Z,48.00
2018-04-23T15:11:08.997Z,48.00
2018-04-23T15:13:36.563Z,48.50
2018-04-23T15:16:04.113Z,49.50
2018-04-23T15:18:31.588Z,50.70
2018-04-23T15:20:59.046Z,50.20
2018-04-23T15:23:26.509Z,49.90
2018-04-23T15:25:54.826Z,49.90
2018-04-23T15:28:22.331Z,49.80
2018-04-23T15:30:49.885Z,49.60
2018-04-23T15:33:17.496Z,49.70
2018-04-23T15:35:44.913Z,49.90
2018-04-23T15:38:13.185Z,50.20
2018-04-23T15:40:40.644Z,50.10
2018-04-23T15:43:08.106Z,51.00
2018-04-23T15:45:36.380Z,51.50
2018-04-23T15:48:03.845Z,51.50
2018-04-23T15:50:31.300Z,52.00
2018-04-23T15:52:58.766Z,52.30
2018-04-23T15:55:26.313Z,52.70
2018-04-23T15:57:53.874Z,53.30
2018-04-23T16:00:21.341Z,53.80
2018-04-23T16:02:48.888Z,54.20
2018-04-23T16:05:16.350Z,53.80
2018-04-23T16:07:43.909Z,53.90
2018-04-23T16:10:11.449Z,53.70
2018-04-23T16:12:38.933Z,53.60
2018-04-23T16:15:06.492Z,53.60
2018-04-23T16:17:34.065Z,53.30
2018-04-23T16:20:01.513Z,52.90
2018-04-23T16:22:29.786Z,52.10
2018-04-23T16:24:57.249Z,52.10
2018-04-23T16:27:24.715Z,51.70
2018-04-23T16:29:52.181Z,51.90
2018-04-23T16:32:20.435Z,51.80
2018-04-23T16:34:47.994Z,51.80
2018-04-23T16:37:15.551Z,51.20
2018-04-23T16:39:43.118Z,51.20
2018-04-23T16:42:10.590Z,51.30
2018-04-23T16:44:39.418Z,51.50
2018-04-23T16:47:05.697Z,51.90
2018-04-23T16:49:33.169Z,52.30
2018-04-23T16:52:00.721Z,52.50
2018-04-23T16:54:28.190Z,53.30
2018-04-23T16:56:55.726Z,52.50
2018-04-23T16:59:23.292Z,53.00
2018-04-23T17:01:50.853Z,53.50
2018-04-23T17:04:18.325Z,53.60
2018-04-23T17:06:45.790Z,54.20
2018-04-23T17:09:14.046Z,55.10
2018-04-23T17:11:41.521Z,55.10
2018-04-23T17:14:08.989Z,55.50
2018-04-23T17:16:37.229Z,55.50
2018-04-23T17:19:04.690Z,55.40
2018-04-23T17:21:32.169Z,55.60
2018-04-23T17:23:59.721Z,56.00
2018-04-23T17:26:27.221Z,56.40
2018-04-23T17:28:54.687Z,56.60
2018-04-23T17:31:22.154Z,55.80
2018-04-23T17:33:49.653Z,55.90
2018-04-23T17:36:17.222Z,56.30
2018-04-23T17:38:44.791Z,56.30
2018-04-23T17:41:12.279Z,56.50
2018-04-23T17:43:40.509Z,57.30
2018-04-23T17:46:08.071Z,57.20
2018-04-23T17:48:35.549Z,56.70
2018-04-23T17:51:03.783Z,57.00
2018-04-23T17:53:31.261Z,57.00
2018-04-23T17:55:58.752Z,57.30
2018-04-23T17:58:27.000Z,58.00
2018-04-23T18:00:55.228Z,58.30
2018-04-23T18:03:22.795Z,58.30
2018-04-23T18:05:50.314Z,58.40
2018-04-23T18:08:17.733Z,58.50
2018-04-23T18:10:45.592Z,58.40
2018-04-23T18:13:13.100Z,58.50
2018-04-23T18:15:41.333Z,58.90
2018-04-23T18:18:08.792Z,58.90
2018-04-23T18:20:36.387Z,59.20
2018-04-23T18:23:03.938Z,59.10
2018-04-23T18:25:31.413Z,59.50
2018-04-23T18:27:59.657Z,59.30
2018-04-23T18:30:27.128Z,59.30
2018-04-23T18:32:54.680Z,59.50
2018-04-23T18:35:22.254Z,59.30
2018-04-23T18:37:49.728Z,59.30
2018-04-23T18:40:17.954Z,59.70
2018-04-23T18:42:45.433Z,59.60
2018-04-23T18:45:12.938Z,60.20
2018-04-23T18:47:40.453Z,60.40
2018-04-23T18:50:07.930Z,60.50
2018-04-23T18:52:35.486Z,60.60
2018-04-23T18:55:02.956Z,60.30
2018-04-23T18:57:31.223Z,60.70
2018-04-23T18:59:58.680Z,60.70
2018-04-23T19:02:26.286Z,61.30
2018-04-23T19:04:53.759Z,60.20
2018-04-23T19:07:21.225Z,60.30
2018-04-23T19:09:48.689Z,60.10
2018-04-23T19:12:16.157Z,60.10
2018-04-23T19:14:43.730Z,60.00
2018-04-23T19:17:11.201Z,60.00
2018-04-23T19:19:38.656Z,60.00
2018-04-23T19:22:06.918Z,60.00
2018-04-23T19:24:34.384Z,60.00
2018-04-23T19:27:01.936Z,60.20
2018-04-23T19:29:29.421Z,60.00
2018-04-23T19:31:57.648Z,60.50
2018-04-23T19:34:25.152Z,60.40
2018-04-23T19:36:53.427Z,61.50
2018-04-23T19:39:20.957Z,60.70
2018-04-23T19:41:48.532Z,60.70
2018-04-23T19:44:16.002Z,60.80
2018-04-23T19:46:44.249Z,61.60
2018-04-23T19:49:11.812Z,60.70
2018-04-23T19:51:39.272Z,60.90
2018-04-23T19:54:07.496Z,61.60
2018-04-23T19:56:35.071Z,60.90
2018-04-23T19:59:02.585Z,60.70
2018-04-23T20:01:30.050Z,60.90
2018-04-23T20:03:57.517Z,60.80
2018-04-23T20:06:25.793Z,61.30
2018-04-23T20:08:54.056Z,61.90
2018-04-23T20:11:22.293Z,61.30
2018-04-23T20:13:49.793Z,61.30
2018-04-23T20:16:17.253Z,61.60
2018-04-23T20:18:45.484Z,61.90
2018-04-23T20:21:12.973Z,62.00
2018-04-23T20:23:40.447Z,62.20
2018-04-23T20:26:07.993Z,62.70
2018-04-23T20:28:35.480Z,63.00
2018-04-23T20:31:03.720Z,64.50
2018-04-23T20:33:31.194Z,64.40
2018-04-23T20:35:58.742Z,65.30
2018-04-23T20:38:26.252Z,65.50
2018-04-23T20:40:53.761Z,66.40
2018-04-23T20:43:21.221Z,66.90
2018-04-23T20:45:48.788Z,67.30
2018-04-23T20:48:16.253Z,67.90
2018-04-23T20:50:43.745Z,68.00
2018-04-23T20:53:11.961Z,68.70
2018-04-23T20:55:39.434Z,68.70
2018-04-23T20:58:06.900Z,69.40
2018-04-23T21:00:34.374Z,70.50
2018-04-23T21:03:02.631Z,71.40
2018-04-23T21:05:30.187Z,71.30
2018-04-23T21:07:57.656Z,71.90
2018-04-23T21:10:25.127Z,72.30
2018-04-23T21:12:53.377Z,73.90
2018-04-23T21:15:20.864Z,73.40
2018-04-23T21:17:49.130Z,74.60
2018-04-23T21:20:16.672Z,74.60
2018-04-23T21:22:44.239Z,75.50
2018-04-23T21:25:11.701Z,75.90
2018-04-23T21:27:39.249Z,76.20
2018-04-23T21:30:06.817Z,76.30
2018-04-23T21:32:34.373Z,76.50
2018-04-23T21:35:01.841Z,77.60
2018-04-23T21:37:29.304Z,77.20
2018-04-23T21:39:56.851Z,77.30
2018-04-23T21:42:24.310Z,78.70
2018-04-23T21:44:51.773Z,78.80
2018-04-23T21:47:19.240Z,78.00
2018-04-23T21:49:46.709Z,77.00
2018-04-23T21:52:14.937Z,78.60
2018-04-23T21:54:42.404Z,78.60
2018-04-23T21:57:09.867Z,79.60
2018-04-23T21:59:37.331Z,80.40
2018-04-23T22:02:04.804Z,81.20
2018-04-23T22:04:32.261Z,81.50
2018-04-23T22:06:59.733Z,81.70
2018-04-23T22:09:27.970Z,82.20
2018-04-23T22:11:55.503Z,82.90
2018-04-23T22:14:23.004Z,82.20
2018-04-23T22:16:50.520Z,82.10
2018-04-23T22:19:17.977Z,82.60
2018-04-23T22:21:45.539Z,82.60
2018-04-23T22:24:12.999Z,82.20
2018-04-23T22:26:40.557Z,82.30
2018-04-23T22:29:08.068Z,81.60
2018-04-23T22:31:35.532Z,81.40
2018-04-23T22:34:03.078Z,81.70
2018-04-23T22:36:30.544Z,82.90
2018-04-23T22:38:58.016Z,81.90
2018-04-23T22:41:26.253Z,82.00
2018-04-23T22:43:53.787Z,82.00
2018-04-23T22:46:21.296Z,81.70
2018-04-23T22:48:48.760Z,81.20
2018-04-23T22:51:16.308Z,81.30
2018-04-23T22:53:43.864Z,81.70
2018-04-23T22:56:11.425Z,81.70
2018-04-23T22:58:38.985Z,81.50
2018-04-23T23:01:06.440Z,81.60
2018-04-23T23:03:33.908Z,82.00
2018-04-23T23:06:01.465Z,82.10
2018-04-23T23:08:28.937Z,82.10
2018-04-23T23:10:56.377Z,82.40
2018-04-23T23:13:23.941Z,82.50
2018-04-23T23:15:51.412Z,82.60
2018-04-23T23:18:18.960Z,83.20
2018-04-23T23:20:46.521Z,83.50
2018-04-23T23:23:14.083Z,83.70
2018-04-23T23:25:41.537Z,83.50
2018-04-23T23:28:09.005Z,83.70
2018-04-23T23:30:36.469Z,83.30
2018-04-23T23:33:03.925Z,83.40
2018-04-23T23:35:31.405Z,84.40
2018-04-23T23:37:59.645Z,83.70
2018-04-23T23:40:27.885Z,83.40
2018-04-23T23:42:55.385Z,83.40
2018-04-23T23:45:23.019Z,83.30
2018-04-23T23:47:50.402Z,83.40
2018-04-23T23:50:17.865Z,83.30
2018-04-23T23:52:45.413Z,83.20
2018-04-23T23:55:12.989Z,82.80
2018-04-23T23:57:40.541Z,83.00
